createdAt,value
2022-11-07T00:00:11.947Z,85.59
2022-11-07T00:01:11.937Z,85.18
2022-11-07T00:02:12.138Z,85.79
2022-11-07T00:03:12.239Z,85.79
2022-11-07T00:04:11.933Z,85.69
2022-11-07T00:05:11.899Z,85.59
2022-11-07T00:06:11.889Z,85.69
2022-11-07T00:07:11.879Z,86.61
2022-11-07T00:08:11.859Z,86.20
2022-11-07T00:09:11.883Z,86.61
2022-11-07T00:10:11.837Z,86.20
2022-11-07T00:11:11.830Z,86.20
2022-11-07T00:12:11.834Z,86.41
2022-11-07T00:13:11.994Z,86.65
2022-11-07T00:14:11.800Z,86.44
2022-11-07T00:15:11.790Z,86.35
2022-11-07T00:16:11.774Z,86.65
2022-11-07T00:17:11.779Z,86.61
2022-11-07T00:18:11.752Z,86.71
2022-11-07T00:19:11.757Z,86.61
2022-11-07T00:20:11.730Z,86.61
2022-11-07T00:21:11.716Z,86.61
2022-11-07T00:22:11.703Z,86.51
2022-11-07T00:23:12.030Z,87.23
2022-11-07T00:24:11.700Z,87.12
2022-11-07T00:25:11.676Z,86.91
2022-11-07T00:26:11.699Z,86.91
2022-11-07T00:27:11.759Z,87.02
2022-11-07T00:28:11.807Z,86.82
2022-11-07T00:29:11.647Z,86.82
2022-11-07T00:30:11.617Z,87.02
2022-11-07T00:31:11.609Z,86.91
2022-11-07T00:32:11.589Z,86.91
2022-11-07T00:33:11.837Z,86.82
2022-11-07T00:34:11.589Z,86.91
2022-11-07T00:35:11.561Z,87.06
2022-11-07T00:36:11.544Z,87.32
2022-11-07T00:37:11.542Z,86.71
2022-11-07T00:38:11.522Z,87.16
2022-11-07T00:39:11.532Z,87.06
2022-11-07T00:40:11.506Z,87.02
2022-11-07T00:41:11.489Z,87.32
2022-11-07T00:42:11.475Z,87.37
2022-11-07T00:43:11.908Z,87.12
2022-11-07T00:44:11.495Z,87.12
2022-11-07T00:45:11.445Z,87.06
2022-11-07T00:46:11.433Z,87.26
2022-11-07T00:47:11.427Z,87.67
2022-11-07T00:48:11.420Z,87.26
2022-11-07T00:49:11.419Z,87.47
2022-11-07T00:50:11.393Z,87.26
2022-11-07T00:51:11.377Z,87.26
2022-11-07T00:52:11.364Z,87.57
2022-11-07T00:53:11.639Z,87.57
2022-11-07T00:54:11.363Z,87.88
2022-11-07T00:55:11.330Z,87.57
2022-11-07T00:56:11.328Z,87.37
2022-11-07T00:57:11.309Z,87.37
2022-11-07T00:58:14.280Z,87.37
2022-11-07T00:59:11.306Z,87.47
2022-11-07T01:00:11.390Z,87.77
2022-11-07T01:01:11.329Z,87.67
2022-11-07T01:02:11.368Z,87.47
2022-11-07T01:03:11.375Z,87.71
2022-11-07T01:04:11.251Z,87.37
2022-11-07T01:05:11.227Z,87.26
2022-11-07T01:06:11.219Z,87.47
2022-11-07T01:07:11.207Z,87.71
2022-11-07T01:08:11.197Z,87.16
2022-11-07T01:09:11.211Z,87.51
2022-11-07T01:10:11.171Z,87.10
2022-11-07T01:11:11.157Z,87.26
2022-11-07T01:12:11.140Z,87.00
2022-11-07T01:13:11.411Z,87.77
2022-11-07T01:14:11.141Z,87.37
2022-11-07T01:15:11.123Z,87.20
2022-11-07T01:16:11.127Z,87.82
2022-11-07T01:17:11.085Z,87.51
2022-11-07T01:18:11.082Z,87.51
2022-11-07T01:19:11.060Z,87.51
2022-11-07T01:20:11.077Z,87.71
2022-11-07T01:21:16.271Z,88.33
2022-11-07T01:22:12.028Z,87.71
2022-11-07T01:23:11.019Z,87.92
2022-11-07T01:24:11.018Z,88.33
2022-11-07T01:25:11.014Z,88.43
2022-11-07T01:26:10.991Z,88.12
2022-11-07T01:27:10.982Z,87.98
2022-11-07T01:28:10.966Z,88.33
2022-11-07T01:29:10.955Z,87.92
2022-11-07T01:30:10.970Z,87.57
2022-11-07T01:31:10.935Z,88.02
2022-11-07T01:32:10.946Z,87.92
2022-11-07T01:33:10.949Z,88.23
2022-11-07T01:34:10.900Z,87.82
2022-11-07T01:35:10.904Z,87.57
2022-11-07T01:36:10.873Z,87.41
2022-11-07T01:37:10.866Z,87.57
2022-11-07T01:38:10.854Z,87.37
2022-11-07T01:39:10.847Z,87.57
2022-11-07T01:40:10.841Z,87.26
2022-11-07T01:41:10.816Z,87.37
2022-11-07T01:42:10.811Z,86.96
2022-11-07T01:43:10.794Z,87.47
2022-11-07T01:44:10.791Z,87.16
2022-11-07T01:45:10.786Z,87.16
2022-11-07T01:46:10.760Z,86.76
2022-11-07T01:47:10.748Z,86.96
2022-11-07T01:48:10.759Z,86.76
2022-11-07T01:49:10.728Z,87.16
2022-11-07T01:50:10.738Z,86.65
2022-11-07T01:51:10.713Z,86.85
2022-11-07T01:52:10.702Z,86.65
2022-11-07T01:53:10.680Z,86.76
2022-11-07T01:54:10.681Z,86.76
2022-11-07T01:55:10.683Z,86.96
2022-11-07T01:56:10.653Z,87.16
2022-11-07T01:57:10.642Z,87.06
2022-11-07T01:58:10.623Z,86.85
2022-11-07T01:59:10.616Z,87.16
2022-11-07T02:00:10.614Z,87.16
2022-11-07T02:01:10.600Z,87.37
2022-11-07T02:02:10.681Z,87.16
2022-11-07T02:03:10.581Z,86.96
2022-11-07T02:04:10.589Z,86.96
2022-11-07T02:05:10.562Z,86.96
2022-11-07T02:06:10.535Z,86.96
2022-11-07T02:07:10.532Z,86.96
2022-11-07T02:08:10.509Z,87.06
2022-11-07T02:09:10.502Z,87.02
2022-11-07T02:10:10.505Z,86.65
2022-11-07T02:11:10.485Z,87.06
2022-11-07T02:12:10.474Z,87.06
2022-11-07T02:13:10.456Z,86.85
2022-11-07T02:14:10.449Z,86.76
2022-11-07T02:15:10.453Z,86.96
2022-11-07T02:16:10.432Z,86.96
2022-11-07T02:17:10.421Z,87.16
2022-11-07T02:18:10.415Z,87.06
2022-11-07T02:19:10.389Z,87.26
2022-11-07T02:20:10.422Z,86.55
2022-11-07T02:21:10.377Z,87.37
2022-11-07T02:22:10.365Z,86.85
2022-11-07T02:23:10.348Z,86.71
2022-11-07T02:24:10.340Z,86.82
2022-11-07T02:25:10.338Z,87.06
2022-11-07T02:26:10.322Z,86.96
2022-11-07T02:27:10.309Z,87.37
2022-11-07T02:28:10.298Z,86.55
2022-11-07T02:29:10.280Z,86.44
2022-11-07T02:30:10.291Z,86.76
2022-11-07T02:31:10.255Z,87.16
2022-11-07T02:32:10.250Z,86.85
2022-11-07T02:33:10.234Z,87.26
2022-11-07T02:34:10.226Z,87.26
2022-11-07T02:35:10.222Z,87.47
2022-11-07T02:36:10.225Z,87.37
2022-11-07T02:37:10.196Z,87.16
2022-11-07T02:38:10.181Z,86.96
2022-11-07T02:39:10.170Z,87.26
2022-11-07T02:40:10.183Z,87.67
2022-11-07T02:41:10.157Z,87.26
2022-11-07T02:42:10.143Z,87.26
2022-11-07T02:43:10.119Z,87.20
2022-11-07T02:44:10.113Z,88.02
2022-11-07T02:45:10.110Z,87.41
2022-11-07T02:46:10.091Z,87.37
2022-11-07T02:47:10.083Z,87.41
2022-11-07T02:48:10.075Z,87.47
2022-11-07T02:49:10.061Z,87.61
2022-11-07T02:50:10.058Z,87.51
2022-11-07T02:51:10.029Z,87.20
2022-11-07T02:52:10.049Z,88.02
2022-11-07T02:53:10.014Z,88.33
2022-11-07T02:54:10.005Z,88.23
2022-11-07T02:55:10.007Z,88.02
2022-11-07T02:56:09.980Z,88.06
2022-11-07T02:57:09.971Z,88.17
2022-11-07T02:58:09.963Z,88.88
2022-11-07T02:59:09.950Z,88.26
2022-11-07T03:00:09.955Z,88.47
2022-11-07T03:01:10.039Z,89.18
2022-11-07T03:02:10.090Z,89.53
2022-11-07T03:03:09.913Z,89.64
2022-11-07T03:04:09.883Z,89.33
2022-11-07T03:05:09.976Z,89.23
2022-11-07T03:06:09.868Z,90.15
2022-11-07T03:07:09.852Z,90.25
2022-11-07T03:08:09.878Z,90.15
2022-11-07T03:09:09.836Z,90.36
2022-11-07T03:10:09.823Z,89.84
2022-11-07T03:11:09.807Z,89.84
2022-11-07T03:12:09.801Z,89.43
2022-11-07T03:13:09.783Z,89.64
2022-11-07T03:14:09.802Z,89.84
2022-11-07T03:15:09.880Z,89.84
2022-11-07T03:16:09.749Z,89.84
2022-11-07T03:17:09.745Z,90.15
2022-11-07T03:18:09.726Z,89.84
2022-11-07T03:19:09.746Z,89.64
2022-11-07T03:20:09.768Z,89.74
2022-11-07T03:21:09.704Z,89.53
2022-11-07T03:22:09.702Z,89.74
2022-11-07T03:23:09.685Z,89.64
2022-11-07T03:24:09.679Z,89.53
2022-11-07T03:25:09.664Z,89.53
2022-11-07T03:26:09.642Z,89.94
2022-11-07T03:27:09.626Z,89.98
2022-11-07T03:28:09.621Z,90.05
2022-11-07T03:29:09.624Z,90.60
2022-11-07T03:30:09.599Z,90.70
2022-11-07T03:31:09.595Z,90.15
2022-11-07T03:32:09.571Z,90.50
2022-11-07T03:33:09.566Z,90.86
2022-11-07T03:34:09.558Z,90.36
2022-11-07T03:35:09.539Z,90.56
2022-11-07T03:36:09.540Z,90.56
2022-11-07T03:37:09.520Z,90.15
2022-11-07T03:38:09.508Z,90.36
2022-11-07T03:39:09.506Z,90.66
2022-11-07T03:40:09.507Z,90.66
2022-11-07T03:41:09.475Z,90.45
2022-11-07T03:42:09.464Z,89.94
2022-11-07T03:43:09.451Z,89.84
2022-11-07T03:44:09.457Z,89.94
2022-11-07T03:45:09.423Z,89.33
2022-11-07T03:46:09.417Z,89.39
2022-11-07T03:47:09.409Z,89.64
2022-11-07T03:48:09.386Z,89.80
2022-11-07T03:49:09.435Z,89.94
2022-11-07T03:50:09.372Z,89.74
2022-11-07T03:51:09.364Z,90.05
2022-11-07T03:52:09.343Z,89.80
2022-11-07T03:53:09.340Z,89.64
2022-11-07T03:54:09.341Z,90.05
2022-11-07T03:55:09.395Z,89.84
2022-11-07T03:56:09.320Z,90.66
2022-11-07T03:57:09.293Z,90.31
2022-11-07T03:58:09.278Z,90.25
2022-11-07T03:59:09.279Z,90.66
2022-11-07T04:00:09.262Z,90.45
2022-11-07T04:01:09.245Z,89.84
2022-11-07T04:02:09.395Z,90.56
2022-11-07T04:03:09.224Z,90.21
2022-11-07T04:04:09.221Z,89.70
2022-11-07T04:05:09.207Z,89.84
2022-11-07T04:06:09.191Z,89.94
2022-11-07T04:07:09.182Z,90.05
2022-11-07T04:08:09.170Z,90.21
2022-11-07T04:09:09.183Z,90.86
2022-11-07T04:10:09.141Z,90.45
2022-11-07T04:11:09.142Z,90.21
2022-11-07T04:12:09.169Z,90.00
2022-11-07T04:13:09.108Z,89.80
2022-11-07T04:14:09.120Z,89.50
2022-11-07T04:15:09.181Z,89.65
2022-11-07T04:16:12.339Z,89.56
2022-11-07T04:17:10.068Z,89.50
2022-11-07T04:18:09.057Z,90.31
2022-11-07T04:19:09.062Z,90.31
2022-11-07T04:20:09.034Z,90.11
2022-11-07T04:21:09.021Z,89.70
2022-11-07T04:22:09.009Z,89.59
2022-11-07T04:23:09.005Z,90.06
2022-11-07T04:24:09.000Z,89.45
2022-11-07T04:25:08.979Z,89.45
2022-11-07T04:26:08.965Z,89.25
2022-11-07T04:27:08.952Z,89.59
2022-11-07T04:28:08.963Z,89.45
2022-11-07T04:29:08.950Z,89.70
2022-11-07T04:30:08.924Z,89.56
2022-11-07T04:31:08.937Z,89.50
2022-11-07T04:32:08.895Z,89.45
2022-11-07T04:33:08.891Z,89.80
2022-11-07T04:34:08.886Z,89.50
2022-11-07T04:35:08.871Z,89.50
2022-11-07T04:36:08.859Z,89.50
2022-11-07T04:37:08.845Z,89.70
2022-11-07T04:38:08.833Z,89.90
2022-11-07T04:39:08.831Z,89.90
2022-11-07T04:40:08.810Z,89.90
2022-11-07T04:41:08.802Z,90.58
2022-11-07T04:42:08.782Z,89.76
2022-11-07T04:43:08.776Z,89.50
2022-11-07T04:44:08.801Z,89.15
2022-11-07T04:45:08.757Z,89.15
2022-11-07T04:46:08.742Z,89.50
2022-11-07T04:47:08.733Z,89.35
2022-11-07T04:48:08.722Z,89.25
2022-11-07T04:49:08.722Z,89.35
2022-11-07T04:50:08.693Z,89.65
2022-11-07T04:51:08.723Z,89.76
2022-11-07T04:52:08.671Z,90.17
2022-11-07T04:53:08.658Z,89.56
2022-11-07T04:54:08.655Z,90.17
2022-11-07T04:55:08.657Z,89.56
2022-11-07T04:56:08.783Z,89.45
2022-11-07T04:57:08.613Z,89.25
2022-11-07T04:58:08.609Z,88.94
2022-11-07T04:59:08.621Z,89.00
2022-11-07T05:00:08.597Z,88.90
2022-11-07T05:01:08.588Z,88.18
2022-11-07T05:02:08.725Z,88.59
2022-11-07T05:03:08.614Z,88.49
2022-11-07T05:04:08.560Z,88.70
2022-11-07T05:05:08.527Z,88.29
2022-11-07T05:06:08.520Z,88.29
2022-11-07T05:07:08.503Z,88.08
2022-11-07T05:08:08.488Z,88.08
2022-11-07T05:09:08.507Z,88.08
2022-11-07T05:10:12.213Z,87.98
2022-11-07T05:11:08.463Z,88.49
2022-11-07T05:12:08.444Z,88.59
2022-11-07T05:13:08.442Z,88.90
2022-11-07T05:14:08.451Z,89.00
2022-11-07T05:15:08.471Z,87.88
2022-11-07T05:16:08.420Z,88.49
2022-11-07T05:17:08.393Z,88.29
2022-11-07T05:18:08.385Z,88.39
2022-11-07T05:19:08.390Z,88.39
2022-11-07T05:20:08.361Z,88.29
2022-11-07T05:21:08.349Z,88.39
2022-11-07T05:22:08.342Z,88.49
2022-11-07T05:23:08.324Z,88.29
2022-11-07T05:24:08.350Z,88.39
2022-11-07T05:25:08.309Z,88.39
2022-11-07T05:26:08.297Z,88.04
2022-11-07T05:27:08.277Z,87.77
2022-11-07T05:28:08.266Z,87.23
2022-11-07T05:29:08.269Z,87.32
2022-11-07T05:30:08.250Z,87.84
2022-11-07T05:31:08.237Z,88.04
2022-11-07T05:32:08.248Z,87.32
2022-11-07T05:33:08.211Z,87.43
2022-11-07T05:34:12.190Z,86.91
2022-11-07T05:35:09.194Z,87.02
2022-11-07T05:36:08.185Z,86.51
2022-11-07T05:37:08.174Z,86.61
2022-11-07T05:38:08.157Z,86.30
2022-11-07T05:39:08.159Z,86.71
2022-11-07T05:40:08.129Z,86.06
2022-11-07T05:41:08.126Z,85.59
2022-11-07T05:42:08.134Z,85.24
2022-11-07T05:43:08.105Z,85.35
2022-11-07T05:44:08.110Z,85.45
2022-11-07T05:45:08.083Z,85.14
2022-11-07T05:46:08.070Z,84.42
2022-11-07T05:47:08.061Z,84.83
2022-11-07T05:48:08.169Z,84.83
2022-11-07T05:49:08.030Z,84.94
2022-11-07T05:50:08.044Z,84.69
2022-11-07T05:51:08.009Z,84.49
2022-11-07T05:52:07.996Z,84.28
2022-11-07T05:53:08.088Z,84.18
2022-11-07T05:54:07.994Z,83.87
2022-11-07T05:55:07.974Z,83.73
2022-11-07T05:56:07.951Z,83.57
2022-11-07T05:57:07.953Z,83.37
2022-11-07T05:58:07.930Z,83.26
2022-11-07T05:59:08.026Z,83.12
2022-11-07T06:00:07.905Z,83.57
2022-11-07T06:01:07.893Z,83.23
2022-11-07T06:02:08.112Z,83.12
2022-11-07T06:03:07.999Z,83.78
2022-11-07T06:04:07.898Z,83.23
2022-11-07T06:05:07.859Z,83.23
2022-11-07T06:06:07.846Z,83.63
2022-11-07T06:07:07.836Z,83.02
2022-11-07T06:08:07.846Z,82.92
2022-11-07T06:09:07.832Z,83.09
2022-11-07T06:10:07.805Z,82.92
2022-11-07T06:11:07.793Z,83.23
2022-11-07T06:12:07.781Z,82.92
2022-11-07T06:13:07.767Z,82.98
2022-11-07T06:14:07.799Z,83.12
2022-11-07T06:15:07.740Z,83.02
2022-11-07T06:16:07.749Z,83.23
2022-11-07T06:17:08.418Z,83.53
2022-11-07T06:18:07.705Z,82.82
2022-11-07T06:19:07.713Z,82.88
2022-11-07T06:20:07.707Z,82.47
2022-11-07T06:21:07.699Z,82.61
2022-11-07T06:22:07.657Z,82.37
2022-11-07T06:23:07.650Z,82.57
2022-11-07T06:24:12.372Z,82.57
2022-11-07T06:25:08.632Z,82.27
2022-11-07T06:26:07.629Z,82.57
2022-11-07T06:27:07.623Z,81.96
2022-11-07T06:28:07.592Z,81.96
2022-11-07T06:29:07.592Z,82.27
2022-11-07T06:30:07.577Z,81.86
2022-11-07T06:31:07.572Z,82.17
2022-11-07T06:32:07.550Z,82.43
2022-11-07T06:33:07.547Z,82.33
2022-11-07T06:34:07.549Z,82.03
2022-11-07T06:35:07.522Z,82.54
2022-11-07T06:36:07.535Z,82.54
2022-11-07T06:37:07.492Z,82.54
2022-11-07T06:38:07.532Z,82.23
2022-11-07T06:39:07.512Z,81.62
2022-11-07T06:40:07.458Z,82.13
2022-11-07T06:41:07.459Z,81.82
2022-11-07T06:42:07.468Z,81.88
2022-11-07T06:43:07.430Z,81.72
2022-11-07T06:44:07.435Z,81.88
2022-11-07T06:45:07.418Z,81.72
2022-11-07T06:46:07.406Z,81.68
2022-11-07T06:47:07.402Z,81.38
2022-11-07T06:48:07.379Z,81.68
2022-11-07T06:49:07.372Z,81.79
2022-11-07T06:50:07.358Z,81.68
2022-11-07T06:51:07.335Z,82.09
2022-11-07T06:52:07.346Z,81.68
2022-11-07T06:53:07.323Z,81.48
2022-11-07T06:54:07.327Z,82.13
2022-11-07T06:55:07.400Z,81.58
2022-11-07T06:56:07.280Z,81.68
2022-11-07T06:57:07.274Z,81.27
2022-11-07T06:58:07.267Z,81.58
2022-11-07T06:59:07.294Z,81.68
2022-11-07T07:00:07.236Z,81.68
2022-11-07T07:01:07.264Z,81.58
2022-11-07T07:02:07.272Z,81.79
2022-11-07T07:03:07.256Z,81.79
2022-11-07T07:04:07.212Z,82.05
2022-11-07T07:05:07.177Z,81.68
2022-11-07T07:06:07.175Z,82.46
2022-11-07T07:07:07.155Z,82.05
2022-11-07T07:08:07.180Z,81.99
2022-11-07T07:09:07.152Z,82.19
2022-11-07T07:10:07.133Z,82.29
2022-11-07T07:11:07.119Z,82.15
2022-11-07T07:12:07.111Z,82.19
2022-11-07T07:13:07.085Z,82.15
2022-11-07T07:14:11.373Z,82.26
2022-11-07T07:15:07.068Z,82.26
2022-11-07T07:16:07.061Z,81.74
2022-11-07T07:17:07.047Z,81.54
2022-11-07T07:18:07.038Z,81.74
2022-11-07T07:19:07.061Z,81.65
2022-11-07T07:20:07.015Z,81.60
2022-11-07T07:21:07.006Z,81.60
2022-11-07T07:22:06.994Z,82.12
2022-11-07T07:23:06.975Z,81.60
2022-11-07T07:24:07.106Z,81.81
2022-11-07T07:25:06.964Z,81.74
2022-11-07T07:26:06.954Z,82.01
2022-11-07T07:27:06.942Z,81.71
2022-11-07T07:28:06.926Z,82.73
2022-11-07T07:29:06.926Z,83.13
2022-11-07T07:30:06.925Z,82.87
2022-11-07T07:31:07.060Z,83.68
2022-11-07T07:32:06.876Z,84.50
2022-11-07T07:33:06.877Z,84.50
2022-11-07T07:34:06.883Z,84.59
2022-11-07T07:35:06.882Z,84.70
2022-11-07T07:36:06.838Z,84.70
2022-11-07T07:37:06.825Z,84.70
2022-11-07T07:38:06.818Z,84.50
2022-11-07T07:39:06.829Z,84.59
2022-11-07T07:40:06.905Z,85.21
2022-11-07T07:41:06.783Z,85.31
2022-11-07T07:42:06.770Z,85.31
2022-11-07T07:43:06.755Z,84.90
2022-11-07T07:44:06.766Z,84.80
2022-11-07T07:45:06.737Z,85.41
2022-11-07T07:46:06.716Z,85.31
2022-11-07T07:47:11.043Z,85.41
2022-11-07T07:48:06.701Z,85.31
2022-11-07T07:49:06.699Z,84.90
2022-11-07T07:50:06.674Z,85.00
2022-11-07T07:51:06.670Z,84.86
2022-11-07T07:52:06.668Z,85.41
2022-11-07T07:53:09.221Z,85.61
2022-11-07T07:54:06.648Z,85.31
2022-11-07T07:55:06.625Z,85.06
2022-11-07T07:56:06.725Z,85.06
2022-11-07T07:57:06.593Z,85.27
2022-11-07T07:58:06.586Z,85.41
2022-11-07T07:59:06.596Z,85.27
2022-11-07T08:00:06.560Z,85.27
2022-11-07T08:01:06.645Z,85.47
2022-11-07T08:02:06.628Z,85.47
2022-11-07T08:03:06.527Z,85.06
2022-11-07T08:04:06.542Z,84.76
2022-11-07T08:05:06.511Z,84.86
2022-11-07T08:06:06.502Z,85.06
2022-11-07T08:07:06.488Z,85.17
2022-11-07T08:08:06.473Z,85.03
2022-11-07T08:09:06.473Z,85.43
2022-11-07T08:10:35.117Z,85.27
2022-11-07T08:11:07.441Z,85.33
2022-11-07T08:12:06.550Z,85.23
2022-11-07T08:13:06.427Z,85.13
2022-11-07T08:14:06.431Z,84.82
2022-11-07T08:15:06.421Z,85.19
2022-11-07T08:16:06.394Z,85.43
2022-11-07T08:17:06.371Z,85.13
2022-11-07T08:18:06.371Z,85.03
2022-11-07T08:19:06.362Z,85.13
2022-11-07T08:20:06.339Z,85.23
2022-11-07T08:21:06.421Z,85.33
2022-11-07T08:22:06.323Z,85.13
2022-11-07T08:23:09.873Z,85.13
2022-11-07T08:24:07.323Z,85.23
2022-11-07T08:25:06.280Z,85.23
2022-11-07T08:26:06.282Z,85.13
2022-11-07T08:27:06.267Z,85.43
2022-11-07T08:28:06.370Z,85.33
2022-11-07T08:29:06.250Z,85.03
2022-11-07T08:30:06.231Z,84.31
2022-11-07T08:31:06.221Z,85.13
2022-11-07T08:32:06.213Z,85.33
2022-11-07T08:33:06.243Z,84.88
2022-11-07T08:34:06.471Z,84.92
2022-11-07T08:35:06.177Z,85.13
2022-11-07T08:36:06.161Z,85.09
2022-11-07T08:37:06.153Z,85.09
2022-11-07T08:38:06.140Z,85.33
2022-11-07T08:39:06.150Z,85.03
2022-11-07T08:40:06.113Z,85.09
2022-11-07T08:41:06.102Z,85.39
2022-11-07T08:42:06.097Z,84.38
2022-11-07T08:43:06.087Z,84.68
2022-11-07T08:44:06.117Z,84.58
2022-11-07T08:45:06.072Z,84.38
2022-11-07T08:46:06.051Z,84.31
2022-11-07T08:47:08.610Z,84.48
2022-11-07T08:48:06.032Z,84.48
2022-11-07T08:49:06.031Z,84.28
2022-11-07T08:50:06.006Z,84.88
2022-11-07T08:51:05.997Z,84.88
2022-11-07T08:52:05.984Z,84.48
2022-11-07T08:53:05.980Z,83.97
2022-11-07T08:54:05.984Z,84.38
2022-11-07T08:55:05.946Z,84.23
2022-11-07T08:56:05.940Z,83.62
2022-11-07T08:57:05.918Z,84.03
2022-11-07T08:58:05.910Z,84.23
2022-11-07T08:59:05.919Z,83.97
2022-11-07T09:00:05.941Z,84.68
2022-11-07T09:01:05.940Z,84.44
2022-11-07T09:04:06.991Z,84.44
2022-11-07T09:05:05.838Z,85.15
2022-11-07T09:06:05.823Z,84.44
2022-11-07T09:07:05.811Z,84.54
2022-11-07T09:08:05.806Z,84.95
2022-11-07T09:09:05.803Z,85.25
2022-11-07T09:10:05.782Z,85.15
2022-11-07T09:11:05.773Z,84.95
2022-11-07T09:12:05.760Z,85.25
2022-11-07T09:13:05.746Z,84.95
2022-11-07T09:14:05.743Z,85.01
2022-11-07T09:15:05.718Z,85.15
2022-11-07T09:16:05.773Z,84.91
2022-11-07T09:17:05.701Z,85.01
2022-11-07T09:18:05.688Z,84.91
2022-11-07T09:19:05.685Z,84.80
2022-11-07T09:20:05.671Z,85.01
2022-11-07T09:21:05.650Z,84.30
2022-11-07T09:22:05.650Z,85.21
2022-11-07T09:23:05.629Z,84.91
2022-11-07T09:24:05.634Z,84.30
2022-11-07T09:25:05.608Z,84.91
2022-11-07T09:26:05.594Z,85.11
2022-11-07T09:27:05.588Z,84.50
2022-11-07T09:28:05.589Z,85.05
2022-11-07T09:29:05.572Z,85.11
2022-11-07T09:30:05.555Z,85.01
2022-11-07T09:31:05.548Z,84.70
2022-11-07T09:32:30.496Z,85.21
2022-11-07T09:33:06.520Z,85.25
2022-11-07T09:34:05.533Z,85.15
2022-11-07T09:35:05.498Z,85.11
2022-11-07T09:36:05.488Z,85.01
2022-11-07T09:37:05.471Z,84.91
2022-11-07T09:38:05.463Z,85.01
2022-11-07T09:39:05.670Z,84.91
2022-11-07T09:40:05.448Z,84.60
2022-11-07T09:41:05.433Z,84.20
2022-11-07T09:42:05.412Z,84.20
2022-11-07T09:43:05.407Z,83.89
2022-11-07T09:44:05.432Z,83.95
2022-11-07T09:45:05.378Z,83.54
2022-11-07T09:46:05.370Z,83.65
2022-11-07T09:47:05.362Z,84.16
2022-11-07T09:48:05.376Z,84.26
2022-11-07T09:49:05.347Z,83.00
2022-11-07T09:50:05.338Z,83.14
2022-11-07T09:51:05.321Z,83.14
2022-11-07T09:52:05.304Z,82.59
2022-11-07T09:53:05.292Z,82.70
2022-11-07T09:54:05.302Z,82.84
2022-11-07T09:55:05.271Z,82.73
2022-11-07T09:56:05.270Z,83.04
2022-11-07T09:57:05.253Z,82.80
2022-11-07T09:58:05.320Z,82.09
2022-11-07T09:59:09.686Z,82.09
2022-11-07T10:00:06.207Z,82.05
2022-11-07T10:01:05.261Z,81.68
2022-11-07T10:02:05.266Z,81.74
2022-11-07T10:03:05.184Z,81.78
2022-11-07T10:04:24.125Z,81.99
2022-11-07T10:05:06.160Z,81.44
2022-11-07T10:06:05.152Z,81.74
2022-11-07T10:07:05.136Z,81.24
2022-11-07T10:08:05.117Z,81.44
2022-11-07T10:09:05.124Z,80.83
2022-11-07T10:10:05.110Z,81.04
2022-11-07T10:11:05.098Z,80.97
2022-11-07T10:12:05.075Z,81.34
2022-11-07T10:13:05.063Z,80.53
2022-11-07T10:14:05.076Z,80.73
2022-11-07T10:15:05.044Z,80.73
2022-11-07T10:16:05.035Z,80.79
2022-11-07T10:17:05.025Z,80.83
2022-11-07T10:18:05.015Z,80.29
2022-11-07T10:19:04.996Z,79.78
2022-11-07T10:20:05.032Z,80.39
2022-11-07T10:21:35.984Z,80.43
2022-11-07T10:22:05.975Z,80.29
2022-11-07T10:23:04.959Z,79.98
2022-11-07T10:24:04.951Z,80.19
2022-11-07T10:25:04.937Z,79.98
2022-11-07T10:26:04.921Z,79.27
2022-11-07T10:27:04.918Z,79.24
2022-11-07T10:28:04.902Z,79.34
2022-11-07T10:29:04.900Z,79.17
2022-11-07T10:30:04.870Z,79.74
2022-11-07T10:31:04.897Z,79.24
2022-11-07T10:32:04.850Z,79.34
2022-11-07T10:33:04.843Z,79.03
2022-11-07T10:34:04.846Z,79.24
2022-11-07T10:35:04.817Z,78.79
2022-11-07T10:36:04.840Z,78.63
2022-11-07T10:37:04.809Z,79.03
2022-11-07T10:38:04.808Z,79.03
2022-11-07T10:39:04.785Z,79.00
2022-11-07T10:40:09.612Z,78.79
2022-11-07T10:41:05.757Z,79.00
2022-11-07T10:42:04.740Z,79.50
2022-11-07T10:43:04.730Z,79.10
2022-11-07T10:44:04.731Z,78.59
2022-11-07T10:45:04.706Z,78.79
2022-11-07T10:46:04.700Z,78.69
2022-11-07T10:47:04.697Z,78.69
2022-11-07T10:48:04.688Z,78.05
2022-11-07T10:49:04.687Z,77.75
2022-11-07T10:50:04.648Z,77.50
2022-11-07T10:51:04.648Z,77.40
2022-11-07T10:52:04.649Z,77.06
2022-11-07T10:53:04.623Z,76.97
2022-11-07T10:54:04.652Z,76.46
2022-11-07T10:55:04.611Z,75.71
2022-11-07T10:56:04.586Z,75.51
2022-11-07T10:57:04.641Z,74.77
2022-11-07T10:58:04.565Z,74.57
2022-11-07T10:59:05.034Z,74.53
2022-11-07T11:00:04.537Z,74.60
2022-11-07T11:01:04.640Z,74.49
2022-11-07T11:02:04.619Z,72.75
2022-11-07T11:03:04.519Z,72.24
2022-11-07T11:04:04.506Z,72.14
2022-11-07T11:05:04.499Z,72.24
2022-11-07T11:06:04.468Z,73.38
2022-11-07T11:07:04.460Z,72.68
2022-11-07T11:08:04.483Z,72.07
2022-11-07T11:09:04.452Z,72.68
2022-11-07T11:10:04.431Z,73.79
2022-11-07T11:11:04.427Z,74.43
2022-11-07T11:12:04.402Z,73.99
2022-11-07T11:13:04.393Z,73.32
2022-11-07T11:14:04.403Z,74.02
2022-11-07T11:15:04.377Z,73.58
2022-11-07T11:16:05.856Z,73.02
2022-11-07T11:17:04.406Z,73.32
2022-11-07T11:18:04.334Z,74.50
2022-11-07T11:19:04.346Z,74.60
2022-11-07T11:20:04.313Z,74.66
2022-11-07T11:21:04.304Z,74.70
2022-11-07T11:22:09.444Z,75.10
2022-11-07T11:23:05.278Z,74.80
2022-11-07T11:24:04.412Z,74.90
2022-11-07T11:25:04.263Z,75.21
2022-11-07T11:26:04.253Z,75.41
2022-11-07T11:27:04.247Z,75.51
2022-11-07T11:28:04.232Z,75.41
2022-11-07T11:29:04.212Z,75.81
2022-11-07T11:30:04.213Z,74.60
2022-11-07T11:31:04.198Z,75.10
2022-11-07T11:32:04.179Z,75.41
2022-11-07T11:33:04.175Z,76.62
2022-11-07T11:34:04.167Z,76.66
2022-11-07T11:35:04.147Z,74.94
2022-11-07T11:36:04.143Z,75.75
2022-11-07T11:37:04.133Z,74.94
2022-11-07T11:38:04.112Z,74.84
2022-11-07T11:39:04.125Z,74.77
2022-11-07T11:40:04.116Z,75.55
2022-11-07T11:41:10.406Z,75.14
2022-11-07T11:42:05.071Z,74.94
2022-11-07T11:43:04.064Z,74.94
2022-11-07T11:44:04.065Z,75.04
2022-11-07T11:45:04.035Z,75.14
2022-11-07T11:46:04.019Z,74.70
2022-11-07T11:47:04.010Z,75.31
2022-11-07T11:48:04.002Z,74.46
2022-11-07T11:49:03.992Z,74.66
2022-11-07T11:50:03.984Z,73.75
2022-11-07T11:51:03.964Z,73.02
2022-11-07T11:52:03.949Z,73.28
2022-11-07T11:53:03.937Z,72.88
2022-11-07T11:54:03.949Z,72.27
2022-11-07T11:55:03.922Z,72.17
2022-11-07T11:56:03.939Z,72.31
2022-11-07T11:57:03.899Z,73.28
2022-11-07T11:58:03.884Z,72.17
2022-11-07T11:59:03.926Z,71.60
2022-11-07T12:00:03.861Z,71.50
2022-11-07T12:01:03.858Z,71.40
2022-11-07T12:02:03.880Z,71.17
2022-11-07T12:03:03.831Z,70.53
2022-11-07T12:04:07.068Z,70.62
2022-11-07T12:05:03.817Z,70.73
2022-11-07T12:06:03.795Z,70.83
2022-11-07T12:07:03.780Z,70.83
2022-11-07T12:08:03.775Z,69.79
2022-11-07T12:09:03.773Z,70.79
2022-11-07T12:10:03.746Z,69.79
2022-11-07T12:11:03.736Z,69.99
2022-11-07T12:12:03.757Z,70.19
2022-11-07T12:13:03.721Z,69.99
2022-11-07T12:14:03.724Z,69.79
2022-11-07T12:15:03.696Z,69.95
2022-11-07T12:16:03.687Z,70.06
2022-11-07T12:17:03.688Z,70.06
2022-11-07T12:18:03.667Z,70.15
2022-11-07T12:19:03.656Z,69.25
2022-11-07T12:20:03.649Z,69.05
2022-11-07T12:21:03.634Z,69.85
2022-11-07T12:22:03.621Z,69.79
2022-11-07T12:23:03.613Z,70.39
2022-11-07T12:24:03.625Z,70.19
2022-11-07T12:25:03.579Z,70.32
2022-11-07T12:26:03.571Z,70.93
2022-11-07T12:27:03.565Z,71.03
2022-11-07T12:28:03.707Z,71.03
2022-11-07T12:29:03.551Z,70.93
2022-11-07T12:30:03.531Z,70.83
2022-11-07T12:31:03.523Z,71.13
2022-11-07T12:32:03.501Z,71.33
2022-11-07T12:33:03.504Z,71.33
2022-11-07T12:34:03.503Z,71.23
2022-11-07T12:35:03.482Z,70.12
2022-11-07T12:36:03.469Z,70.29
2022-11-07T12:37:03.447Z,70.29
2022-11-07T12:38:03.440Z,70.29
2022-11-07T12:39:03.438Z,69.79
2022-11-07T12:40:03.414Z,68.98
2022-11-07T12:41:03.406Z,69.35
2022-11-07T12:42:03.390Z,68.88
2022-11-07T12:43:03.387Z,69.28
2022-11-07T12:44:03.412Z,69.05
2022-11-07T12:45:03.389Z,69.55
2022-11-07T12:46:03.346Z,69.45
2022-11-07T12:47:03.351Z,69.79
2022-11-07T12:48:05.359Z,69.48
2022-11-07T12:49:04.347Z,69.65
2022-11-07T12:50:03.307Z,70.29
2022-11-07T12:51:03.300Z,70.59
2022-11-07T12:52:03.281Z,70.39
2022-11-07T12:53:03.279Z,70.42
2022-11-07T12:54:03.272Z,70.93